sensor_id;sensor_type;location;lat;lon;timestamp;P1;durP1;ratioP1;P2;durP2;ratioP2
15816;SDS011;8009;50.070;8.232;2024-01-15T00:00:09;7.07;;;6.37;;
15816;SDS011;8009;50.070;8.232;2024-01-15T00:02:41;4.27;;;3.97;;
15816;SDS011;8009;50.070;8.232;2024-01-15T00:05:09;5.73;;;5.20;;
15816;SDS011;8009;50.070;8.232;2024-01-15T00:07:38;5.47;;;5.03;;
15816;SDS011;8009;50.070;8.232;2024-01-15T00:10:06;3.70;;;3.50;;
15816;SDS011;8009;50.070;8.232;2024-01-15T00:12:35;5.13;;;4.13;;
15816;SDS011;8009;50.070;8.232;2024-01-15T00:15:04;9.57;;;5.73;;
15816;SDS011;8009;50.070;8.232;2024-01-15T00:17:33;5.03;;;4.53;;
15816;SDS011;8009;50.070;8.232;2024-01-15T00:20:05;5.77;;;4.87;;
15816;SDS011;8009;50.070;8.232;2024-01-15T00:22:34;5.20;;;4.77;;
15816;SDS011;8009;50.070;8.232;2024-01-15T00:25:03;5.03;;;4.53;;
15816;SDS011;8009;50.070;8.232;2024-01-15T00:27:31;4.93;;;4.43;;
15816;SDS011;8009;50.070;8.232;2024-01-15T00:30:00;5.53;;;5.03;;
15816;SDS011;8009;50.070;8.232;2024-01-15T00:32:29;5.03;;;4.53;;
15816;SDS011;8009;50.070;8.232;2024-01-15T00:34:58;7.57;;;4.73;;
15816;SDS011;8009;50.070;8.232;2024-01-15T00:37:28;6.47;;;5.97;;
15816;SDS011;8009;50.070;8.232;2024-01-15T00:39:57;6.47;;;5.70;;
15816;SDS011;8009;50.070;8.232;2024-01-15T00:42:26;4.87;;;4.47;;
15816;SDS011;8009;50.070;8.232;2024-01-15T00:44:54;6.13;;;5.63;;
15816;SDS011;8009;50.070;8.232;2024-01-15T00:47:22;5.93;;;5.43;;
15816;SDS011;8009;50.070;8.232;2024-01-15T00:49:51;5.17;;;4.73;;
15816;SDS011;8009;50.070;8.232;2024-01-15T00:52:19;5.77;;;5.27;;
15816;SDS011;8009;50.070;8.232;2024-01-15T00:54:50;7.97;;;6.13;;
15816;SDS011;8009;50.070;8.232;2024-01-15T00:57:18;5.57;;;5.07;;
15816;SDS011;8009;50.070;8.232;2024-01-15T00:59:47;5.87;;;5.27;;
15816;SDS011;8009;50.070;8.232;2024-01-15T01:02:15;5.33;;;4.83;;
15816;SDS011;8009;50.070;8.232;2024-01-15T01:04:44;4.67;;;4.27;;
15816;SDS011;8009;50.070;8.232;2024-01-15T01:07:12;5.07;;;4.70;;
15816;SDS011;8009;50.070;8.232;2024-01-15T01:09:40;5.50;;;4.73;;
15816;SDS011;8009;50.070;8.232;2024-01-15T01:12:11;5.00;;;4.53;;
15816;SDS011;8009;50.070;8.232;2024-01-15T01:14:42;6.20;;;5.60;;
15816;SDS011;8009;50.070;8.232;2024-01-15T01:17:11;4.10;;;3.73;;
15816;SDS011;8009;50.070;8.232;2024-01-15T01:19:39;4.87;;;4.43;;
15816;SDS011;8009;50.070;8.232;2024-01-15T01:22:07;5.10;;;4.67;;
15816;SDS011;8009;50.070;8.232;2024-01-15T01:24:36;5.43;;;4.93;;
15816;SDS011;8009;50.070;8.232;2024-01-15T01:27:04;5.47;;;4.97;;
15816;SDS011;8009;50.070;8.232;2024-01-15T01:29:35;4.97;;;4.43;;
15816;SDS011;8009;50.070;8.232;2024-01-15T01:32:04;6.50;;;4.67;;
15816;SDS011;8009;50.070;8.232;2024-01-15T01:34:33;8.63;;;4.73;;
15816;SDS011;8009;50.070;8.232;2024-01-15T01:37:08;6.80;;;5.77;;
15816;SDS011;8009;50.070;8.232;2024-01-15T01:39:38;6.27;;;5.20;;
15816;SDS011;8009;50.070;8.232;2024-01-15T01:42:06;5.77;;;5.13;;
15816;SDS011;8009;50.070;8.232;2024-01-15T01:44:37;5.27;;;4.77;;
15816;SDS011;8009;50.070;8.232;2024-01-15T01:47:05;6.97;;;4.43;;
15816;SDS011;8009;50.070;8.232;2024-01-15T01:49:34;5.67;;;5.13;;
15816;SDS011;8009;50.070;8.232;2024-01-15T01:55:14;5.87;;;5.27;;
15816;SDS011;8009;50.070;8.232;2024-01-15T01:57:42;5.17;;;4.37;;
15816;SDS011;8009;50.070;8.232;2024-01-15T02:00:14;6.43;;;4.77;;
15816;SDS011;8009;50.070;8.232;2024-01-15T02:02:42;5.07;;;4.60;;
15816;SDS011;8009;50.070;8.232;2024-01-15T02:05:11;12.03;;;6.73;;
15816;SDS011;8009;50.070;8.232;2024-01-15T02:07:41;5.23;;;4.80;;
15816;SDS011;8009;50.070;8.232;2024-01-15T02:10:07;7.20;;;5.70;;
15816;SDS011;8009;50.070;8.232;2024-01-15T02:12:36;5.17;;;4.67;;
15816;SDS011;8009;50.070;8.232;2024-01-15T02:15:05;9.47;;;5.03;;
15816;SDS011;8009;50.070;8.232;2024-01-15T02:17:36;4.27;;;3.97;;
15816;SDS011;8009;50.070;8.232;2024-01-15T02:20:24;5.27;;;4.77;;
15816;SDS011;8009;50.070;8.232;2024-01-15T02:22:53;5.80;;;5.20;;
15816;SDS011;8009;50.070;8.232;2024-01-15T02:25:24;4.47;;;4.13;;
15816;SDS011;8009;50.070;8.232;2024-01-15T02:27:52;6.10;;;5.60;;
15816;SDS011;8009;50.070;8.232;2024-01-15T02:30:21;5.57;;;4.83;;
15816;SDS011;8009;50.070;8.232;2024-01-15T02:32:50;5.77;;;4.97;;
15816;SDS011;8009;50.070;8.232;2024-01-15T02:35:19;6.17;;;5.67;;
15816;SDS011;8009;50.070;8.232;2024-01-15T02:37:47;4.50;;;4.20;;
15816;SDS011;8009;50.070;8.232;2024-01-15T02:40:16;3.50;;;3.27;;
15816;SDS011;8009;50.070;8.232;2024-01-15T02:51:23;4.53;;;4.23;;
15816;SDS011;8009;50.070;8.232;2024-01-15T02:53:51;5.50;;;4.77;;
15816;SDS011;8009;50.070;8.232;2024-01-15T02:56:20;5.10;;;4.70;;
15816;SDS011;8009;50.070;8.232;2024-01-15T02:58:50;4.00;;;3.70;;
15816;SDS011;8009;50.070;8.232;2024-01-15T03:01:19;4.20;;;3.90;;
15816;SDS011;8009;50.070;8.232;2024-01-15T03:03:47;4.90;;;4.50;;
15816;SDS011;8009;50.070;8.232;2024-01-15T03:06:16;4.77;;;4.20;;
15816;SDS011;8009;50.070;8.232;2024-01-15T03:08:44;9.93;;;8.93;;
15816;SDS011;8009;50.070;8.232;2024-01-15T03:11:12;6.47;;;5.87;;
15816;SDS011;8009;50.070;8.232;2024-01-15T03:13:40;6.47;;;5.20;;
15816;SDS011;8009;50.070;8.232;2024-01-15T03:16:11;8.27;;;5.93;;
15816;SDS011;8009;50.070;8.232;2024-01-15T03:18:40;5.73;;;5.17;;
15816;SDS011;8009;50.070;8.232;2024-01-15T03:21:08;4.87;;;4.33;;
15816;SDS011;8009;50.070;8.232;2024-01-15T03:23:36;4.47;;;4.17;;
15816;SDS011;8009;50.070;8.232;2024-01-15T03:26:05;4.70;;;4.30;;
15816;SDS011;8009;50.070;8.232;2024-01-15T03:28:33;4.70;;;4.30;;
15816;SDS011;8009;50.070;8.232;2024-01-15T03:31:02;5.30;;;4.77;;
15816;SDS011;8009;50.070;8.232;2024-01-15T03:33:33;4.43;;;4.13;;
15816;SDS011;8009;50.070;8.232;2024-01-15T03:36:01;4.47;;;4.07;;
15816;SDS011;8009;50.070;8.232;2024-01-15T03:38:29;4.73;;;4.33;;
15816;SDS011;8009;50.070;8.232;2024-01-15T03:40:58;4.97;;;4.57;;
15816;SDS011;8009;50.070;8.232;2024-01-15T03:43:29;5.27;;;4.77;;
15816;SDS011;8009;50.070;8.232;2024-01-15T03:45:57;4.17;;;3.87;;
15816;SDS011;8009;50.070;8.232;2024-01-15T03:48:27;5.60;;;4.03;;
15816;SDS011;8009;50.070;8.232;2024-01-15T03:50:58;5.50;;;5.03;;
15816;SDS011;8009;50.070;8.232;2024-01-15T03:53:26;3.63;;;3.33;;
15816;SDS011;8009;50.070;8.232;2024-01-15T03:55:54;5.27;;;4.77;;
15816;SDS011;8009;50.070;8.232;2024-01-15T04:01:33;4.40;;;3.87;;
15816;SDS011;8009;50.070;8.232;2024-01-15T04:04:02;6.00;;;5.50;;
15816;SDS011;8009;50.070;8.232;2024-01-15T04:06:33;6.33;;;4.43;;
15816;SDS011;8009;50.070;8.232;2024-01-15T04:09:01;4.67;;;3.67;;
15816;SDS011;8009;50.070;8.232;2024-01-15T04:11:30;9.17;;;5.60;;
15816;SDS011;8009;50.070;8.232;2024-01-15T04:13:58;4.80;;;4.40;;
15816;SDS011;8009;50.070;8.232;2024-01-15T04:16:26;4.03;;;3.73;;
15816;SDS011;8009;50.070;8.232;2024-01-15T04:18:55;5.57;;;4.53;;
15816;SDS011;8009;50.070;8.232;2024-01-15T04:21:23;5.27;;;4.37;;
15816;SDS011;8009;50.070;8.232;2024-01-15T04:23:54;7.23;;;5.47;;
15816;SDS011;8009;50.070;8.232;2024-01-15T04:26:23;3.83;;;3.53;;
15816;SDS011;8009;50.070;8.232;2024-01-15T04:28:51;3.97;;;3.67;;
15816;SDS011;8009;50.070;8.232;2024-01-15T04:31:22;6.90;;;5.17;;
15816;SDS011;8009;50.070;8.232;2024-01-15T04:33:52;5.03;;;4.63;;
15816;SDS011;8009;50.070;8.232;2024-01-15T04:36:20;5.00;;;4.60;;
15816;SDS011;8009;50.070;8.232;2024-01-15T04:38:49;5.40;;;4.53;;
15816;SDS011;8009;50.070;8.232;2024-01-15T04:41:19;5.03;;;4.63;;
15816;SDS011;8009;50.070;8.232;2024-01-15T04:43:48;5.57;;;5.07;;
15816;SDS011;8009;50.070;8.232;2024-01-15T04:46:16;5.40;;;4.83;;
15816;SDS011;8009;50.070;8.232;2024-01-15T04:48:44;5.40;;;4.90;;
15816;SDS011;8009;50.070;8.232;2024-01-15T04:51:13;5.33;;;4.83;;
15816;SDS011;8009;50.070;8.232;2024-01-15T04:53:44;4.70;;;4.40;;
15816;SDS011;8009;50.070;8.232;2024-01-15T04:56:12;4.27;;;3.93;;
15816;SDS011;8009;50.070;8.232;2024-01-15T04:58:43;4.30;;;3.97;;
15816;SDS011;8009;50.070;8.232;2024-01-15T05:01:11;4.57;;;4.17;;
15816;SDS011;8009;50.070;8.232;2024-01-15T05:03:40;4.93;;;4.43;;
15816;SDS011;8009;50.070;8.232;2024-01-15T05:06:08;4.33;;;4.03;;
15816;SDS011;8009;50.070;8.232;2024-01-15T05:08:37;5.83;;;4.83;;
15816;SDS011;8009;50.070;8.232;2024-01-15T05:11:05;3.87;;;3.53;;
15816;SDS011;8009;50.070;8.232;2024-01-15T05:13:34;4.37;;;3.97;;
15816;SDS011;8009;50.070;8.232;2024-01-15T05:16:05;3.57;;;3.37;;
15816;SDS011;8009;50.070;8.232;2024-01-15T05:24:50;4.77;;;3.47;;
15816;SDS011;8009;50.070;8.232;2024-01-15T05:27:19;7.33;;;3.90;;
15816;SDS011;8009;50.070;8.232;2024-01-15T05:29:47;5.17;;;4.67;;
15816;SDS011;8009;50.070;8.232;2024-01-15T05:32:18;4.97;;;4.53;;
15816;SDS011;8009;50.070;8.232;2024-01-15T05:34:46;7.73;;;4.83;;
15816;SDS011;8009;50.070;8.232;2024-01-15T05:37:15;5.63;;;5.23;;
15816;SDS011;8009;50.070;8.232;2024-01-15T05:39:43;3.30;;;3.00;;
15816;SDS011;8009;50.070;8.232;2024-01-15T05:42:11;5.60;;;4.60;;
15816;SDS011;8009;50.070;8.232;2024-01-15T05:44:40;3.57;;;3.37;;
15816;SDS011;8009;50.070;8.232;2024-01-15T05:47:08;4.07;;;3.77;;
15816;SDS011;8009;50.070;8.232;2024-01-15T05:49:40;5.23;;;4.50;;
15816;SDS011;8009;50.070;8.232;2024-01-15T05:52:08;6.07;;;4.13;;
15816;SDS011;8009;50.070;8.232;2024-01-15T05:54:36;4.30;;;4.00;;
15816;SDS011;8009;50.070;8.232;2024-01-15T05:57:05;8.60;;;7.55;;
15816;SDS011;8009;50.070;8.232;2024-01-15T05:59:33;9.20;;;5.67;;
15816;SDS011;8009;50.070;8.232;2024-01-15T06:02:01;4.07;;;3.83;;
15816;SDS011;8009;50.070;8.232;2024-01-15T06:04:30;7.43;;;4.77;;
15816;SDS011;8009;50.070;8.232;2024-01-15T06:07:02;4.43;;;4.03;;
15816;SDS011;8009;50.070;8.232;2024-01-15T06:09:31;7.53;;;5.90;;
15816;SDS011;8009;50.070;8.232;2024-01-15T06:11:59;4.00;;;3.70;;
15816;SDS011;8009;50.070;8.232;2024-01-15T06:14:27;5.17;;;4.73;;
15816;SDS011;8009;50.070;8.232;2024-01-15T06:16:56;5.27;;;4.77;;
15816;SDS011;8009;50.070;8.232;2024-01-15T06:19:24;4.67;;;4.20;;
15816;SDS011;8009;50.070;8.232;2024-01-15T06:21:52;5.13;;;4.60;;
15816;SDS011;8009;50.070;8.232;2024-01-15T06:24:23;3.93;;;3.63;;
15816;SDS011;8009;50.070;8.232;2024-01-15T06:26:52;4.63;;;3.80;;
15816;SDS011;8009;50.070;8.232;2024-01-15T06:35:42;5.63;;;5.07;;
15816;SDS011;8009;50.070;8.232;2024-01-15T06:38:10;6.87;;;6.13;;
15816;SDS011;8009;50.070;8.232;2024-01-15T06:40:41;4.27;;;3.97;;
15816;SDS011;8009;50.070;8.232;2024-01-15T06:43:10;5.03;;;4.57;;
15816;SDS011;8009;50.070;8.232;2024-01-15T06:45:39;7.87;;;4.60;;
15816;SDS011;8009;50.070;8.232;2024-01-15T06:48:07;6.00;;;5.43;;
15816;SDS011;8009;50.070;8.232;2024-01-15T06:53:48;4.90;;;4.50;;
15816;SDS011;8009;50.070;8.232;2024-01-15T06:56:19;6.20;;;5.70;;
15816;SDS011;8009;50.070;8.232;2024-01-15T07:01:45;3.47;;;3.27;;
15816;SDS011;8009;50.070;8.232;2024-01-15T07:04:13;5.33;;;4.83;;
15816;SDS011;8009;50.070;8.232;2024-01-15T07:06:42;4.90;;;4.00;;
15816;SDS011;8009;50.070;8.232;2024-01-15T07:09:10;5.83;;;5.27;;
15816;SDS011;8009;50.070;8.232;2024-01-15T07:11:48;4.97;;;4.47;;
15816;SDS011;8009;50.070;8.232;2024-01-15T07:14:16;5.67;;;4.47;;
15816;SDS011;8009;50.070;8.232;2024-01-15T07:19:48;5.27;;;4.87;;
15816;SDS011;8009;50.070;8.232;2024-01-15T07:22:26;4.80;;;4.50;;
15816;SDS011;8009;50.070;8.232;2024-01-15T07:24:54;4.60;;;4.20;;
15816;SDS011;8009;50.070;8.232;2024-01-15T07:27:25;5.37;;;4.87;;
15816;SDS011;8009;50.070;8.232;2024-01-15T07:36:48;4.93;;;4.50;;
15816;SDS011;8009;50.070;8.232;2024-01-15T07:39:32;4.63;;;4.33;;
15816;SDS011;8009;50.070;8.232;2024-01-15T07:44:52;7.20;;;5.13;;
15816;SDS011;8009;50.070;8.232;2024-01-15T07:47:21;4.67;;;4.23;;
15816;SDS011;8009;50.070;8.232;2024-01-15T07:53:00;7.40;;;5.43;;
15816;SDS011;8009;50.070;8.232;2024-01-15T07:55:29;6.10;;;5.53;;
15816;SDS011;8009;50.070;8.232;2024-01-15T07:57:57;9.35;;;8.35;;
15816;SDS011;8009;50.070;8.232;2024-01-15T08:00:30;5.83;;;5.33;;
15816;SDS011;8009;50.070;8.232;2024-01-15T08:02:59;5.27;;;4.83;;
15816;SDS011;8009;50.070;8.232;2024-01-15T08:05:28;5.37;;;4.87;;
15816;SDS011;8009;50.070;8.232;2024-01-15T08:14:25;5.13;;;4.73;;
15816;SDS011;8009;50.070;8.232;2024-01-15T08:16:56;4.90;;;4.27;;
15816;SDS011;8009;50.070;8.232;2024-01-15T08:19:24;6.00;;;5.50;;
15816;SDS011;8009;50.070;8.232;2024-01-15T08:21:52;5.50;;;5.00;;
15816;SDS011;8009;50.070;8.232;2024-01-15T08:24:21;6.40;;;5.80;;
15816;SDS011;8009;50.070;8.232;2024-01-15T08:26:49;4.27;;;3.87;;
15816;SDS011;8009;50.070;8.232;2024-01-15T08:29:17;4.80;;;4.30;;
15816;SDS011;8009;50.070;8.232;2024-01-15T08:31:46;6.13;;;5.53;;
15816;SDS011;8009;50.070;8.232;2024-01-15T08:34:17;8.17;;;6.77;;
15816;SDS011;8009;50.070;8.232;2024-01-15T08:36:45;5.40;;;5.00;;
15816;SDS011;8009;50.070;8.232;2024-01-15T08:39:14;17.70;;;6.03;;
15816;SDS011;8009;50.070;8.232;2024-01-15T08:41:44;5.77;;;5.23;;
15816;SDS011;8009;50.070;8.232;2024-01-15T08:44:12;5.20;;;4.47;;
15816;SDS011;8009;50.070;8.232;2024-01-15T08:46:41;7.73;;;5.70;;
15816;SDS011;8009;50.070;8.232;2024-01-15T08:49:10;5.47;;;4.50;;
15816;SDS011;8009;50.070;8.232;2024-01-15T08:51:41;5.67;;;5.17;;
15816;SDS011;8009;50.070;8.232;2024-01-15T08:54:13;5.07;;;4.67;;
15816;SDS011;8009;50.070;8.232;2024-01-15T08:56:43;5.17;;;4.77;;
15816;SDS011;8009;50.070;8.232;2024-01-15T08:59:12;6.10;;;5.03;;
15816;SDS011;8009;50.070;8.232;2024-01-15T09:01:41;7.57;;;6.57;;
15816;SDS011;8009;50.070;8.232;2024-01-15T09:04:09;5.47;;;4.73;;
15816;SDS011;8009;50.070;8.232;2024-01-15T09:06:37;5.63;;;4.93;;
15816;SDS011;8009;50.070;8.232;2024-01-15T09:09:12;6.97;;;6.13;;
15816;SDS011;8009;50.070;8.232;2024-01-15T09:11:42;5.17;;;4.83;;
15816;SDS011;8009;50.070;8.232;2024-01-15T09:14:13;8.70;;;6.20;;
15816;SDS011;8009;50.070;8.232;2024-01-15T09:16:41;6.33;;;5.80;;
15816;SDS011;8009;50.070;8.232;2024-01-15T09:19:10;4.80;;;4.20;;
15816;SDS011;8009;50.070;8.232;2024-01-15T09:21:43;6.17;;;4.47;;
15816;SDS011;8009;50.070;8.232;2024-01-15T09:24:12;5.10;;;4.77;;
15816;SDS011;8009;50.070;8.232;2024-01-15T09:26:44;6.10;;;5.30;;
15816;SDS011;8009;50.070;8.232;2024-01-15T09:29:13;9.10;;;6.43;;
15816;SDS011;8009;50.070;8.232;2024-01-15T09:31:42;6.10;;;5.70;;
15816;SDS011;8009;50.070;8.232;2024-01-15T09:34:12;5.65;;;5.15;;
15816;SDS011;8009;50.070;8.232;2024-01-15T09:36:43;6.73;;;5.87;;
15816;SDS011;8009;50.070;8.232;2024-01-15T09:39:11;6.70;;;5.97;;
15816;SDS011;8009;50.070;8.232;2024-01-15T09:41:40;4.80;;;4.40;;
15816;SDS011;8009;50.070;8.232;2024-01-15T09:44:10;4.50;;;4.13;;
15816;SDS011;8009;50.070;8.232;2024-01-15T09:46:38;4.87;;;4.47;;
15816;SDS011;8009;50.070;8.232;2024-01-15T09:49:09;4.27;;;3.97;;
15816;SDS011;8009;50.070;8.232;2024-01-15T09:51:38;7.00;;;4.50;;
15816;SDS011;8009;50.070;8.232;2024-01-15T09:54:09;6.10;;;5.53;;
15816;SDS011;8009;50.070;8.232;2024-01-15T09:56:42;8.27;;;7.50;;
15816;SDS011;8009;50.070;8.232;2024-01-15T09:59:13;6.97;;;6.37;;
15816;SDS011;8009;50.070;8.232;2024-01-15T10:01:43;5.73;;;4.13;;
15816;SDS011;8009;50.070;8.232;2024-01-15T10:04:13;5.60;;;5.10;;
15816;SDS011;8009;50.070;8.232;2024-01-15T10:06:42;4.27;;;3.80;;
15816;SDS011;8009;50.070;8.232;2024-01-15T10:09:15;5.17;;;4.77;;
15816;SDS011;8009;50.070;8.232;2024-01-15T10:11:45;5.10;;;4.70;;
15816;SDS011;8009;50.070;8.232;2024-01-15T10:14:13;4.03;;;3.73;;
15816;SDS011;8009;50.070;8.232;2024-01-15T10:16:42;4.27;;;3.97;;
15816;SDS011;8009;50.070;8.232;2024-01-15T10:19:10;3.50;;;3.30;;
15816;SDS011;8009;50.070;8.232;2024-01-15T10:21:39;4.00;;;3.60;;
15816;SDS011;8009;50.070;8.232;2024-01-15T10:24:07;3.70;;;3.40;;
15816;SDS011;8009;50.070;8.232;2024-01-15T10:26:38;3.00;;;2.80;;
15816;SDS011;8009;50.070;8.232;2024-01-15T10:29:06;5.70;;;5.20;;
15816;SDS011;8009;50.070;8.232;2024-01-15T10:31:36;4.93;;;4.57;;
15816;SDS011;8009;50.070;8.232;2024-01-15T10:34:10;4.80;;;4.37;;
15816;SDS011;8009;50.070;8.232;2024-01-15T10:36:41;3.63;;;3.33;;
15816;SDS011;8009;50.070;8.232;2024-01-15T10:39:22;4.10;;;3.83;;
15816;SDS011;8009;50.070;8.232;2024-01-15T10:41:54;5.33;;;4.83;;
15816;SDS011;8009;50.070;8.232;2024-01-15T10:44:23;3.53;;;3.33;;
15816;SDS011;8009;50.070;8.232;2024-01-15T10:46:54;4.37;;;3.97;;
15816;SDS011;8009;50.070;8.232;2024-01-15T10:49:24;4.83;;;4.43;;
15816;SDS011;8009;50.070;8.232;2024-01-15T10:51:55;3.67;;;3.47;;
15816;SDS011;8009;50.070;8.232;2024-01-15T10:54:25;4.93;;;4.57;;
15816;SDS011;8009;50.070;8.232;2024-01-15T10:56:58;6.30;;;3.93;;
15816;SDS011;8009;50.070;8.232;2024-01-15T10:59:30;5.73;;;5.00;;
15816;SDS011;8009;50.070;8.232;2024-01-15T11:02:02;9.47;;;5.47;;
15816;SDS011;8009;50.070;8.232;2024-01-15T11:04:32;5.27;;;4.83;;
15816;SDS011;8009;50.070;8.232;2024-01-15T11:07:01;3.70;;;3.40;;
15816;SDS011;8009;50.070;8.232;2024-01-15T11:09:30;4.53;;;3.53;;
15816;SDS011;8009;50.070;8.232;2024-01-15T11:12:09;8.73;;;7.35;;
15816;SDS011;8009;50.070;8.232;2024-01-15T11:14:38;11.90;;;10.83;;
15816;SDS011;8009;50.070;8.232;2024-01-15T11:17:08;9.93;;;6.17;;
15816;SDS011;8009;50.070;8.232;2024-01-15T11:19:38;5.30;;;4.90;;
15816;SDS011;8009;50.070;8.232;2024-01-15T11:22:10;4.93;;;4.53;;
15816;SDS011;8009;50.070;8.232;2024-01-15T11:25:01;3.17;;;2.97;;
15816;SDS011;8009;50.070;8.232;2024-01-15T11:27:42;4.10;;;3.80;;
15816;SDS011;8009;50.070;8.232;2024-01-15T11:30:12;7.80;;;7.17;;
15816;SDS011;8009;50.070;8.232;2024-01-15T11:32:42;5.73;;;4.20;;
15816;SDS011;8009;50.070;8.232;2024-01-15T11:35:12;4.43;;;4.03;;
15816;SDS011;8009;50.070;8.232;2024-01-15T11:43:15;4.10;;;3.77;;
15816;SDS011;8009;50.070;8.232;2024-01-15T11:45:46;4.63;;;4.23;;
15816;SDS011;8009;50.070;8.232;2024-01-15T11:48:19;4.10;;;3.80;;
15816;SDS011;8009;50.070;8.232;2024-01-15T11:50:49;4.40;;;4.07;;
15816;SDS011;8009;50.070;8.232;2024-01-15T11:53:24;4.00;;;3.70;;
15816;SDS011;8009;50.070;8.232;2024-01-15T12:12:15;3.10;;;2.80;;
15816;SDS011;8009;50.070;8.232;2024-01-15T12:15:02;4.17;;;3.13;;
15816;SDS011;8009;50.070;8.232;2024-01-15T12:17:31;4.33;;;4.00;;
15816;SDS011;8009;50.070;8.232;2024-01-15T12:19:59;3.77;;;3.50;;
15816;SDS011;8009;50.070;8.232;2024-01-15T12:22:30;3.77;;;3.47;;
15816;SDS011;8009;50.070;8.232;2024-01-15T12:25:01;2.90;;;2.70;;
15816;SDS011;8009;50.070;8.232;2024-01-15T12:27:32;3.67;;;3.37;;
15816;SDS011;8009;50.070;8.232;2024-01-15T12:30:01;7.60;;;4.23;;
15816;SDS011;8009;50.070;8.232;2024-01-15T12:32:30;3.30;;;3.00;;
15816;SDS011;8009;50.070;8.232;2024-01-15T12:34:58;3.13;;;2.93;;
15816;SDS011;8009;50.070;8.232;2024-01-15T12:37:31;3.03;;;2.77;;
15816;SDS011;8009;50.070;8.232;2024-01-15T12:40:00;3.80;;;3.50;;
15816;SDS011;8009;50.070;8.232;2024-01-15T12:42:33;5.40;;;4.93;;
15816;SDS011;8009;50.070;8.232;2024-01-15T12:45:02;4.57;;;3.50;;
15816;SDS011;8009;50.070;8.232;2024-01-15T12:47:30;7.13;;;6.37;;
15816;SDS011;8009;50.070;8.232;2024-01-15T12:50:02;3.77;;;3.47;;
15816;SDS011;8009;50.070;8.232;2024-01-15T12:52:34;4.37;;;3.97;;
15816;SDS011;8009;50.070;8.232;2024-01-15T13:14:34;4.57;;;3.30;;
15816;SDS011;8009;50.070;8.232;2024-01-15T13:17:03;3.93;;;3.33;;
15816;SDS011;8009;50.070;8.232;2024-01-15T13:19:31;5.23;;;3.67;;
15816;SDS011;8009;50.070;8.232;2024-01-15T13:22:00;4.27;;;3.63;;
15816;SDS011;8009;50.070;8.232;2024-01-15T13:24:31;4.30;;;3.90;;
15816;SDS011;8009;50.070;8.232;2024-01-15T13:27:02;2.87;;;2.33;;
15816;SDS011;8009;50.070;8.232;2024-01-15T13:29:34;2.70;;;2.50;;
15816;SDS011;8009;50.070;8.232;2024-01-15T13:32:03;2.70;;;2.50;;
15816;SDS011;8009;50.070;8.232;2024-01-15T13:34:32;6.30;;;2.73;;
15816;SDS011;8009;50.070;8.232;2024-01-15T13:37:01;3.43;;;3.13;;
15816;SDS011;8009;50.070;8.232;2024-01-15T13:39:29;2.20;;;2.07;;
15816;SDS011;8009;50.070;8.232;2024-01-15T13:41:58;3.00;;;2.80;;
15816;SDS011;8009;50.070;8.232;2024-01-15T13:44:37;5.30;;;3.17;;
15816;SDS011;8009;50.070;8.232;2024-01-15T13:50:31;2.97;;;2.77;;
15816;SDS011;8009;50.070;8.232;2024-01-15T13:53:00;2.33;;;2.23;;
15816;SDS011;8009;50.070;8.232;2024-01-15T13:55:31;3.93;;;3.53;;
15816;SDS011;8009;50.070;8.232;2024-01-15T13:58:00;3.00;;;2.80;;
15816;SDS011;8009;50.070;8.232;2024-01-15T14:00:33;2.60;;;2.50;;
15816;SDS011;8009;50.070;8.232;2024-01-15T14:03:03;3.10;;;2.87;;
15816;SDS011;8009;50.070;8.232;2024-01-15T14:05:38;2.47;;;2.27;;
15816;SDS011;8009;50.070;8.232;2024-01-15T14:08:06;2.77;;;2.57;;
15816;SDS011;8009;50.070;8.232;2024-01-15T14:10:35;4.40;;;3.33;;
15816;SDS011;8009;50.070;8.232;2024-01-15T14:13:06;4.97;;;4.27;;
15816;SDS011;8009;50.070;8.232;2024-01-15T14:15:37;6.03;;;3.13;;
15816;SDS011;8009;50.070;8.232;2024-01-15T14:18:05;2.50;;;2.30;;
15816;SDS011;8009;50.070;8.232;2024-01-15T14:20:34;3.10;;;2.80;;
15816;SDS011;8009;50.070;8.232;2024-01-15T14:23:02;5.03;;;4.45;;
15816;SDS011;8009;50.070;8.232;2024-01-15T14:25:30;3.47;;;3.17;;
15816;SDS011;8009;50.070;8.232;2024-01-15T14:27:59;3.57;;;3.27;;
15816;SDS011;8009;50.070;8.232;2024-01-15T14:30:30;2.80;;;2.63;;
15816;SDS011;8009;50.070;8.232;2024-01-15T14:33:01;3.13;;;2.93;;
15816;SDS011;8009;50.070;8.232;2024-01-15T14:35:29;4.20;;;3.87;;
15816;SDS011;8009;50.070;8.232;2024-01-15T14:37:58;2.80;;;2.60;;
15816;SDS011;8009;50.070;8.232;2024-01-15T14:40:26;3.87;;;3.67;;
15816;SDS011;8009;50.070;8.232;2024-01-15T14:42:54;3.27;;;3.03;;
15816;SDS011;8009;50.070;8.232;2024-01-15T14:45:23;2.60;;;2.40;;
15816;SDS011;8009;50.070;8.232;2024-01-15T14:47:52;2.93;;;2.73;;
15816;SDS011;8009;50.070;8.232;2024-01-15T14:50:24;2.70;;;2.50;;
15816;SDS011;8009;50.070;8.232;2024-01-15T14:52:53;7.60;;;3.40;;
15816;SDS011;8009;50.070;8.232;2024-01-15T14:55:21;2.90;;;2.70;;
15816;SDS011;8009;50.070;8.232;2024-01-15T14:57:53;4.03;;;3.17;;
15816;SDS011;8009;50.070;8.232;2024-01-15T15:00:21;3.00;;;2.70;;
15816;SDS011;8009;50.070;8.232;2024-01-15T15:02:50;2.67;;;2.47;;
15816;SDS011;8009;50.070;8.232;2024-01-15T15:05:18;1.93;;;1.83;;
15816;SDS011;8009;50.070;8.232;2024-01-15T15:07:49;2.27;;;2.17;;
15816;SDS011;8009;50.070;8.232;2024-01-15T15:10:19;2.60;;;2.40;;
15816;SDS011;8009;50.070;8.232;2024-01-15T15:12:48;1.67;;;1.57;;
15816;SDS011;8009;50.070;8.232;2024-01-15T15:15:16;1.70;;;1.60;;
15816;SDS011;8009;50.070;8.232;2024-01-15T15:17:45;2.23;;;2.03;;
15816;SDS011;8009;50.070;8.232;2024-01-15T15:20:13;4.77;;;3.37;;
15816;SDS011;8009;50.070;8.232;2024-01-15T15:22:41;1.67;;;1.57;;
15816;SDS011;8009;50.070;8.232;2024-01-15T15:25:14;3.60;;;3.30;;
15816;SDS011;8009;50.070;8.232;2024-01-15T15:27:45;5.07;;;4.57;;
15816;SDS011;8009;50.070;8.232;2024-01-15T15:30:13;2.70;;;2.30;;
15816;SDS011;8009;50.070;8.232;2024-01-15T15:32:42;2.63;;;2.50;;
15816;SDS011;8009;50.070;8.232;2024-01-15T15:35:10;3.07;;;2.77;;
15816;SDS011;8009;50.070;8.232;2024-01-15T15:37:39;1.43;;;1.33;;
15816;SDS011;8009;50.070;8.232;2024-01-15T15:40:08;1.53;;;1.33;;
15816;SDS011;8009;50.070;8.232;2024-01-15T15:42:40;1.83;;;1.73;;
15816;SDS011;8009;50.070;8.232;2024-01-15T15:45:09;0.93;;;0.93;;
15816;SDS011;8009;50.070;8.232;2024-01-15T15:47:40;1.70;;;1.37;;
15816;SDS011;8009;50.070;8.232;2024-01-15T15:50:08;3.30;;;1.60;;
15816;SDS011;8009;50.070;8.232;2024-01-15T15:52:37;2.33;;;1.43;;
15816;SDS011;8009;50.070;8.232;2024-01-15T15:55:06;2.20;;;1.13;;
15816;SDS011;8009;50.070;8.232;2024-01-15T15:57:35;1.60;;;1.50;;
15816;SDS011;8009;50.070;8.232;2024-01-15T16:00:07;3.00;;;2.22;;
15816;SDS011;8009;50.070;8.232;2024-01-15T16:02:36;1.40;;;1.30;;
15816;SDS011;8009;50.070;8.232;2024-01-15T16:05:05;2.90;;;1.90;;
15816;SDS011;8009;50.070;8.232;2024-01-15T16:07:34;1.00;;;1.00;;
15816;SDS011;8009;50.070;8.232;2024-01-15T16:10:03;1.30;;;1.30;;
15816;SDS011;8009;50.070;8.232;2024-01-15T16:12:32;1.80;;;1.03;;
15816;SDS011;8009;50.070;8.232;2024-01-15T16:15:16;1.50;;;1.40;;
15816;SDS011;8009;50.070;8.232;2024-01-15T16:17:48;4.03;;;2.37;;
15816;SDS011;8009;50.070;8.232;2024-01-15T16:20:18;4.47;;;2.03;;
15816;SDS011;8009;50.070;8.232;2024-01-15T16:22:52;1.43;;;1.33;;
15816;SDS011;8009;50.070;8.232;2024-01-15T16:25:24;1.23;;;1.23;;
15816;SDS011;8009;50.070;8.232;2024-01-15T16:27:59;1.47;;;1.37;;
15816;SDS011;8009;50.070;8.232;2024-01-15T16:30:34;1.80;;;1.67;;
15816;SDS011;8009;50.070;8.232;2024-01-15T16:33:08;1.37;;;1.10;;
15816;SDS011;8009;50.070;8.232;2024-01-15T16:35:38;0.90;;;0.80;;
15816;SDS011;8009;50.070;8.232;2024-01-15T16:38:12;1.40;;;1.27;;
15816;SDS011;8009;50.070;8.232;2024-01-15T16:53:15;2.27;;;1.80;;
15816;SDS011;8009;50.070;8.232;2024-01-15T16:58:56;1.30;;;1.20;;
15816;SDS011;8009;50.070;8.232;2024-01-15T17:01:26;1.07;;;1.07;;
15816;SDS011;8009;50.070;8.232;2024-01-15T17:03:55;1.53;;;1.47;;
15816;SDS011;8009;50.070;8.232;2024-01-15T17:06:23;1.23;;;1.13;;
15816;SDS011;8009;50.070;8.232;2024-01-15T17:08:56;1.33;;;1.23;;
15816;SDS011;8009;50.070;8.232;2024-01-15T17:11:25;2.83;;;1.70;;